Time;durP1;ratioP1;P1;durP2;ratioP2;P2;SDS_P1;SDS_P2;PMS_P1;PMS_P2;Temp;Humidity;BMP_temperature;BMP_pressure;BME280_temperature;BME280_humidity;BME280_pressure;Samples;Min_cycle;Max_cycle;Signal;HPM_P1;HPM_P2
2023/08/01 00:00:37;;;;;;;;;;;15.30;93.20;;;;;;5103614;28;20014;-64
2023/08/01 00:03:03;;;;;;;;;;;15.30;92.90;;;;;;5111132;28;19977;-64
2023/08/01 00:05:30;;;;;;;;;;;15.40;92.70;;;;;;5112345;28;19927;-64
2023/08/01 00:07:57;;;;;;;;;;;15.50;92.50;;;;;;5111359;28;19947;-63
2023/08/01 00:10:23;;;;;;;;;;;15.50;92.00;;;;;;5112095;28;20425;-66
2023/08/01 00:12:50;;;;;;;;;;;15.50;92.00;;;;;;5091534;28;19961;-66
2023/08/01 00:15:16;;;;;;;;;;;15.60;91.90;;;;;;5111377;28;19915;-66
2023/08/01 00:17:43;;;;;;;;;;;15.70;91.90;;;;;;5112005;28;19908;-66
2023/08/01 00:20:10;;;;;;;;;;;15.80;91.90;;;;;;5111503;28;20401;-67
2023/08/01 00:22:36;;;;;;;;;;;15.80;91.80;;;;;;5093338;28;19920;-65
2023/08/01 00:25:03;;;;;;;;;;;15.80;91.60;;;;;;5091595;28;19908;-65
2023/08/01 00:27:32;;;;;;;;;;;16.00;91.50;;;;;;5108874;28;20378;-64
2023/08/01 00:29:58;;;;;;;;;;;16.00;91.30;;;;;;5116286;28;19945;-66
2023/08/01 00:32:25;;;;;;;;;;;16.00;91.10;;;;;;5100739;28;20276;-63
2023/08/01 00:34:52;;;;;;;;;;;16.10;91.20;;;;;;5095680;28;19908;-67
2023/08/01 00:37:18;;;;;;;;;;;16.20;91.20;;;;;;5102083;28;19908;-64
2023/08/01 00:39:45;;;;;;;;;;;16.20;90.70;;;;;;5115378;28;19927;-64
2023/08/01 00:42:11;;;;;;;;;;;16.30;90.50;;;;;;5114018;28;19920;-65
2023/08/01 00:44:38;;;;;;;;;;;16.40;90.40;;;;;;5114962;28;19920;-65
2023/08/01 00:47:05;;;;;;;;;;;16.50;90.30;;;;;;5115964;28;19908;-65
2023/08/01 00:49:32;;;;;;;;;;;16.60;90.40;;;;;;5115253;28;20364;-65
2023/08/01 00:51:58;;;;;;;;;;;16.60;90.20;;;;;;5114585;28;19916;-65
2023/08/01 00:54:25;;;;;;;;;;;16.60;89.90;;;;;;5115064;28;19961;-64
2023/08/01 00:56:52;;;;;;;;;;;16.80;90.10;;;;;;5115504;28;20283;-66
2023/08/01 00:59:19;;;;;;;;;;;17.00;89.50;;;;;;5108377;28;19935;-64
2023/08/01 01:01:45;;;;;;;;;;;17.00;89.30;;;;;;5096851;28;20014;-64
2023/08/01 01:04:12;;;;;;;;;;;17.00;88.80;;;;;;5115190;28;19908;-65
2023/08/01 01:06:45;;;;;;;;;;;17.10;89.60;;;;;;5115881;28;19908;-63
2023/08/01 01:09:16;;;;;;;;;;;17.30;89.10;;;;;;5114361;28;20429;-65
2023/08/01 01:11:43;;;;;;;;;;;17.20;88.40;;;;;;5095173;28;20003;-64
2023/08/01 01:14:09;;;;;;;;;;;17.40;88.50;;;;;;5095420;28;20379;-64
2023/08/01 01:16:36;;;;;;;;;;;17.40;88.10;;;;;;5109959;28;20289;-64
2023/08/01 01:19:06;;;;;;;;;;;17.50;87.00;;;;;;5096275;28;19966;-65
2023/08/01 01:21:36;;;;;;;;;;;17.70;88.00;;;;;;5093992;28;20352;-64
2023/08/01 01:24:08;;;;;;;;;;;17.80;87.30;;;;;;5094574;28;19908;-65
2023/08/01 01:26:36;;;;;;;;;;;18.00;87.20;;;;;;5100314;28;19908;-63
2023/08/01 01:29:04;;;;;;;;;;;18.10;85.90;;;;;;5108684;28;20378;-66
2023/08/01 01:31:32;;;;;;;;;;;18.20;84.60;;;;;;5105928;28;19931;-64
2023/08/01 01:33:59;;;;;;;;;;;18.20;85.10;;;;;;5106010;28;20374;-63
2023/08/01 01:36:26;;;;;;;;;;;18.40;85.80;;;;;;5114543;28;19988;-67
2023/08/01 01:38:53;;;;;;;;;;;18.50;86.20;;;;;;5113734;28;19907;-64
2023/08/01 01:41:20;;;;;;;;;;;18.60;83.40;;;;;;5109828;28;19920;-65
2023/08/01 01:43:46;;;;;;;;;;;18.70;83.80;;;;;;5101901;28;19933;-63
2023/08/01 01:46:13;;;;;;;;;;;18.80;83.30;;;;;;5114434;28;19916;-65
2023/08/01 01:48:42;;;;;;;;;;;19.00;83.10;;;;;;5114947;28;20376;-64
2023/08/01 01:51:08;;;;;;;;;;;19.00;82.10;;;;;;5113003;28;19957;-63
2023/08/01 01:53:35;;;;;;;;;;;19.00;80.50;;;;;;5113561;28;20253;-64
2023/08/01 01:56:02;;;;;;;;;;;19.10;80.70;;;;;;5113557;28;20367;-64
2023/08/01 01:58:28;;;;;;;;;;;19.20;79.90;;;;;;5114558;28;20457;-65
2023/08/01 02:00:55;;;;;;;;;;;19.40;80.50;;;;;;5110180;28;20375;-65
2023/08/01 02:03:22;;;;;;;;;;;19.60;79.50;;;;;;5093802;28;19915;-65
2023/08/01 02:05:48;;;;;;;;;;;19.80;79.30;;;;;;5094582;28;19923;-64
2023/08/01 02:08:15;;;;;;;;;;;19.80;79.30;;;;;;5094816;28;19912;-64
2023/08/01 02:10:41;;;;;;;;;;;20.00;78.00;;;;;;5117743;27;19912;-63
2023/08/01 02:13:08;;;;;;;;;;;20.10;78.80;;;;;;5123193;27;19912;-64
2023/08/01 02:15:35;;;;;;;;;;;20.20;76.70;;;;;;5126223;27;20378;-66
2023/08/01 02:18:01;;;;;;;;;;;20.20;76.10;;;;;;5114590;28;20045;-64
2023/08/01 02:20:29;;;;;;;;;;;20.20;76.20;;;;;;5113415;28;19967;-67
2023/08/01 02:22:55;;;;;;;;;;;20.20;76.90;;;;;;5106843;28;19919;-65
2023/08/01 02:25:22;;;;;;;;;;;20.30;76.60;;;;;;5103696;28;19919;-65
2023/08/01 02:27:48;;;;;;;;;;;20.30;76.20;;;;;;5113332;28;19907;-66
2023/08/01 02:30:15;;;;;;;;;;;20.30;76.20;;;;;;5113542;28;19912;-65
2023/08/01 02:32:42;;;;;;;;;;;20.30;75.30;;;;;;5112630;28;19907;-64
2023/08/01 02:35:08;;;;;;;;;;;20.20;75.70;;;;;;5090233;28;19912;-65
2023/08/01 02:37:35;;;;;;;;;;;20.30;75.00;;;;;;5112833;28;19926;-65
2023/08/01 02:40:07;;;;;;;;;;;20.40;74.30;;;;;;5113430;28;19919;-64
2023/08/01 02:42:33;;;;;;;;;;;20.50;74.30;;;;;;5095466;28;19908;-64
2023/08/01 02:45:00;;;;;;;;;;;20.60;73.80;;;;;;5110634;28;19919;-63
2023/08/01 02:47:26;;;;;;;;;;;20.70;74.70;;;;;;5109861;28;20456;-66
2023/08/01 02:49:53;;;;;;;;;;;20.80;73.80;;;;;;5113224;28;19907;-65
2023/08/01 02:52:20;;;;;;;;;;;20.90;70.90;;;;;;5110574;28;20265;-64
2023/08/01 02:54:46;;;;;;;;;;;21.00;71.10;;;;;;5110335;28;19927;-67
2023/08/01 02:57:13;;;;;;;;;;;21.50;70.30;;;;;;5095148;28;19908;-65
2023/08/01 02:59:40;;;;;;;;;;;21.90;70.10;;;;;;5112126;28;19918;-67
2023/08/01 03:02:06;;;;;;;;;;;21.90;69.20;;;;;;5111770;28;20006;-65
2023/08/01 03:04:33;;;;;;;;;;;21.80;68.40;;;;;;5108673;28;20002;-67
2023/08/01 03:06:59;;;;;;;;;;;21.90;70.70;;;;;;5093158;28;19909;-65
2023/08/01 03:09:26;;;;;;;;;;;22.00;70.00;;;;;;5092988;28;19912;-64
2023/08/01 03:11:53;;;;;;;;;;;22.00;70.60;;;;;;5091915;28;20320;-67
2023/08/01 03:14:19;;;;;;;;;;;22.70;70.70;;;;;;5101474;28;19912;-66
2023/08/01 03:16:46;;;;;;;;;;;23.90;69.10;;;;;;5092541;28;19908;-65
2023/08/01 03:19:13;;;;;;;;;;;25.10;68.10;;;;;;5113195;28;20348;-67
2023/08/01 03:21:40;;;;;;;;;;;25.30;66.30;;;;;;5112511;28;19916;-65
2023/08/01 03:24:09;;;;;;;;;;;25.30;65.40;;;;;;5105461;28;20290;-66
2023/08/01 03:26:38;;;;;;;;;;;25.30;65.10;;;;;;5112253;28;20002;-65
2023/08/01 03:29:05;;;;;;;;;;;25.10;65.40;;;;;;5112998;28;19990;-67
2023/08/01 03:31:32;;;;;;;;;;;25.90;62.30;;;;;;5112490;28;20393;-66
2023/08/01 03:33:58;;;;;;;;;;;27.00;60.60;;;;;;5112271;28;20372;-66
2023/08/01 03:36:25;;;;;;;;;;;27.90;59.50;;;;;;5092512;28;20258;-68
2023/08/01 03:38:52;;;;;;;;;;;28.20;59.70;;;;;;5092820;28;19909;-66
2023/08/01 03:41:18;;;;;;;;;;;29.30;57.40;;;;;;5098593;28;19919;-67
2023/08/01 03:43:45;;;;;;;;;;;31.10;55.50;;;;;;5111540;28;19930;-66
2023/08/01 03:46:12;;;;;;;;;;;32.20;53.90;;;;;;5109590;28;19911;-66
2023/08/01 03:48:38;;;;;;;;;;;32.80;52.90;;;;;;5112232;28;19918;-68
2023/08/01 03:51:05;;;;;;;;;;;33.30;52.90;;;;;;5100748;28;20314;-67
2023/08/01 03:53:32;;;;;;;;;;;34.50;51.20;;;;;;5110664;28;19912;-66
2023/08/01 03:55:58;;;;;;;;;;;35.10;49.20;;;;;;5106855;28;19912;-67
2023/08/01 03:58:25;;;;;;;;;;;35.00;49.60;;;;;;5094551;28;19994;-67
2023/08/01 04:00:52;;;;;;;;;;;35.80;49.40;;;;;;5093379;28;19920;-66
2023/08/01 04:03:18;;;;;;;;;;;35.60;48.90;;;;;;5111075;28;20326;-67
2023/08/01 04:05:45;;;;;;;;;;;34.70;48.60;;;;;;5096773;28;19919;-67
2023/08/01 04:08:11;;;;;;;;;;;34.60;49.30;;;;;;5103817;28;19912;-68
2023/08/01 04:10:38;;;;;;;;;;;35.10;47.80;;;;;;5127062;28;19916;-67
2023/08/01 04:13:04;;;;;;;;;;;35.30;47.20;;;;;;5128536;28;19908;-67
2023/08/01 04:15:31;;;;;;;;;;;35.20;45.90;;;;;;5111741;28;19907;-67
2023/08/01 04:17:58;;;;;;;;;;;34.90;46.40;;;;;;5099518;28;19919;-66
2023/08/01 04:20:24;;;;;;;;;;;34.50;46.20;;;;;;5091681;28;20300;-66
2023/08/01 04:22:51;;;;;;;;;;;35.00;45.60;;;;;;5097634;28;19915;-67
2023/08/01 04:25:18;;;;;;;;;;;35.50;45.30;;;;;;5110343;28;19908;-65
2023/08/01 04:27:44;;;;;;;;;;;35.40;44.00;;;;;;5111919;28;19965;-65
2023/08/01 04:30:12;;;;;;;;;;;34.60;44.20;;;;;;5111403;28;20420;-66
2023/08/01 04:32:38;;;;;;;;;;;33.20;44.50;;;;;;5110881;28;19912;-65
2023/08/01 04:35:05;;;;;;;;;;;31.50;46.30;;;;;;5110768;28;19908;-65
2023/08/01 04:37:32;;;;;;;;;;;30.10;47.10;;;;;;5111619;28;19915;-65
2023/08/01 04:39:58;;;;;;;;;;;28.80;48.50;;;;;;5111993;28;19927;-65
2023/08/01 04:42:25;;;;;;;;;;;27.80;49.80;;;;;;5111073;28;20265;-65
2023/08/01 04:44:52;;;;;;;;;;;26.90;49.40;;;;;;5110389;28;19959;-66
2023/08/01 04:47:19;;;;;;;;;;;26.10;50.70;;;;;;5111300;28;19908;-65
2023/08/01 04:49:45;;;;;;;;;;;25.50;50.70;;;;;;5107024;28;19951;-65
2023/08/01 04:52:12;;;;;;;;;;;25.20;51.60;;;;;;5108103;28;19986;-65
2023/08/01 04:54:39;;;;;;;;;;;24.90;51.60;;;;;;5111491;28;19915;-64
2023/08/01 04:57:05;;;;;;;;;;;24.60;52.90;;;;;;5103845;28;19912;-65
2023/08/01 04:59:32;;;;;;;;;;;24.20;53.30;;;;;;5110954;28;19912;-66
2023/08/01 05:01:59;;;;;;;;;;;24.40;53.20;;;;;;5109340;28;19942;-66
2023/08/01 05:04:25;;;;;;;;;;;24.30;53.30;;;;;;5110211;28;19915;-65
2023/08/01 05:06:52;;;;;;;;;;;24.00;54.30;;;;;;5105589;28;20323;-65
2023/08/01 05:09:19;;;;;;;;;;;23.70;53.40;;;;;;5090877;28;19908;-65
2023/08/01 05:11:45;;;;;;;;;;;23.60;53.70;;;;;;5105383;28;19912;-65
2023/08/01 05:14:12;;;;;;;;;;;23.30;54.30;;;;;;5102408;28;19911;-67
2023/08/01 05:16:38;;;;;;;;;;;23.10;53.50;;;;;;5101952;27;19960;-67
2023/08/01 05:19:05;;;;;;;;;;;23.10;55.60;;;;;;5094998;28;20002;-67
2023/08/01 05:21:32;;;;;;;;;;;23.30;55.40;;;;;;5106190;28;19924;-64
2023/08/01 05:23:58;;;;;;;;;;;23.40;55.60;;;;;;5115174;28;20330;-64
2023/08/01 05:26:25;;;;;;;;;;;23.70;55.80;;;;;;5114153;27;19994;-65
2023/08/01 05:28:52;;;;;;;;;;;23.80;56.00;;;;;;5113957;28;19908;-65
2023/08/01 05:31:18;;;;;;;;;;;23.80;54.10;;;;;;5112610;28;19912;-64
2023/08/01 05:33:45;;;;;;;;;;;23.60;54.70;;;;;;5099515;28;19962;-64
2023/08/01 05:36:11;;;;;;;;;;;23.60;57.70;;;;;;5113926;27;19915;-65
2023/08/01 05:38:38;;;;;;;;;;;23.40;58.50;;;;;;5113937;28;20006;-65
2023/08/01 05:41:05;;;;;;;;;;;23.20;59.20;;;;;;5114793;28;19920;-66
2023/08/01 05:43:32;;;;;;;;;;;23.40;60.20;;;;;;5103968;28;19999;-66
2023/08/01 05:45:58;;;;;;;;;;;23.50;60.10;;;;;;5113816;27;19915;-66
2023/08/01 05:48:25;;;;;;;;;;;23.60;60.10;;;;;;5112918;28;20021;-65
2023/08/01 05:50:53;;;;;;;;;;;24.00;60.40;;;;;;5114274;27;19958;-66
2023/08/01 05:53:19;;;;;;;;;;;24.40;59.60;;;;;;5113350;28;19908;-66
2023/08/01 05:55:46;;;;;;;;;;;24.70;60.40;;;;;;5114023;28;19912;-67
2023/08/01 05:58:13;;;;;;;;;;;24.70;58.10;;;;;;5109241;28;20310;-65
2023/08/01 06:00:39;;;;;;;;;;;24.40;59.90;;;;;;5113064;27;19923;-65
2023/08/01 06:03:06;;;;;;;;;;;24.50;58.90;;;;;;5113448;28;20311;-66
2023/08/01 06:05:33;;;;;;;;;;;24.40;59.80;;;;;;5109158;28;19919;-66
2023/08/01 06:07:59;;;;;;;;;;;24.70;58.50;;;;;;5099539;28;19920;-67
2023/08/01 06:10:26;;;;;;;;;;;24.80;59.30;;;;;;5103861;28;19919;-66
2023/08/01 06:12:52;;;;;;;;;;;25.30;59.20;;;;;;5112888;28;20004;-67
2023/08/01 06:15:19;;;;;;;;;;;25.90;58.90;;;;;;5110613;28;19909;-66
2023/08/01 06:17:46;;;;;;;;;;;26.60;58.10;;;;;;5102365;28;19963;-66
2023/08/01 06:20:12;;;;;;;;;;;27.50;57.60;;;;;;5113338;28;19946;-66
2023/08/01 06:22:39;;;;;;;;;;;28.50;57.00;;;;;;5112915;28;19916;-66
2023/08/01 06:25:06;;;;;;;;;;;29.30;55.20;;;;;;5111455;28;19908;-64
2023/08/01 06:27:32;;;;;;;;;;;29.70;54.30;;;;;;5106684;27;19923;-67
2023/08/01 06:29:59;;;;;;;;;;;30.10;54.30;;;;;;5098422;28;20254;-65
2023/08/01 06:32:26;;;;;;;;;;;29.90;53.80;;;;;;5108380;27;19915;-65
2023/08/01 06:34:53;;;;;;;;;;;29.00;54.20;;;;;;5112803;28;19958;-65
2023/08/01 06:37:19;;;;;;;;;;;28.00;55.40;;;;;;5110199;28;20322;-67
2023/08/01 06:39:46;;;;;;;;;;;26.70;57.10;;;;;;5112942;28;19933;-67
2023/08/01 06:42:13;;;;;;;;;;;25.30;59.20;;;;;;5111567;28;19915;-66
2023/08/01 06:44:40;;;;;;;;;;;24.30;60.60;;;;;;5113154;28;19973;-66
2023/08/01 06:47:06;;;;;;;;;;;23.40;62.10;;;;;;5105040;27;19922;-66
2023/08/01 06:49:33;;;;;;;;;;;22.60;63.60;;;;;;5107296;28;19920;-66
2023/08/01 06:52:00;;;;;;;;;;;21.90;65.10;;;;;;5103317;28;19911;-66
2023/08/01 06:54:26;;;;;;;;;;;21.30;66.40;;;;;;5112919;28;19915;-66
2023/08/01 06:56:53;;;;;;;;;;;20.70;68.20;;;;;;5103765;27;19912;-66
2023/08/01 06:59:20;;;;;;;;;;;20.50;69.50;;;;;;5111572;28;19912;-65
2023/08/01 07:01:46;;;;;;;;;;;20.10;70.20;;;;;;5112735;28;19988;-65
2023/08/01 07:04:13;;;;;;;;;;;19.80;71.30;;;;;;5112721;28;19908;-66
2023/08/01 07:06:40;;;;;;;;;;;19.50;72.40;;;;;;5103455;28;19912;-66
2023/08/01 07:09:07;;;;;;;;;;;19.30;73.40;;;;;;5110494;28;19964;-65
2023/08/01 07:11:33;;;;;;;;;;;19.10;73.90;;;;;;5111690;28;20067;-66
2023/08/01 07:14:00;;;;;;;;;;;19.00;75.30;;;;;;5093697;28;20401;-67
2023/08/01 07:16:27;;;;;;;;;;;18.80;75.80;;;;;;5103598;28;19919;-65
2023/08/01 07:18:53;;;;;;;;;;;18.60;76.60;;;;;;5109540;28;19912;-66
2023/08/01 07:21:20;;;;;;;;;;;18.50;77.10;;;;;;5112187;28;20259;-67
2023/08/01 07:23:48;;;;;;;;;;;18.40;78.30;;;;;;5111108;28;19981;-65
2023/08/01 07:26:15;;;;;;;;;;;18.20;78.90;;;;;;5084308;28;19947;-67
2023/08/01 07:28:41;;;;;;;;;;;18.10;79.70;;;;;;5090788;28;20004;-67
2023/08/01 07:31:08;;;;;;;;;;;17.90;80.50;;;;;;5091826;27;20427;-66
2023/08/01 07:33:35;;;;;;;;;;;17.80;81.70;;;;;;5110809;28;19908;-66
2023/08/01 07:36:02;;;;;;;;;;;17.70;82.70;;;;;;5102741;28;19909;-67
2023/08/01 07:38:31;;;;;;;;;;;17.60;83.80;;;;;;5091573;28;20015;-65
2023/08/01 07:41:02;;;;;;;;;;;17.60;84.90;;;;;;5091097;28;19939;-66
2023/08/01 07:43:28;;;;;;;;;;;17.40;85.30;;;;;;5104666;28;19926;-65
2023/08/01 07:45:58;;;;;;;;;;;17.30;86.10;;;;;;5097864;28;19957;-66
2023/08/01 07:48:25;;;;;;;;;;;17.20;86.80;;;;;;5097182;28;19919;-64
2023/08/01 07:50:52;;;;;;;;;;;17.20;87.60;;;;;;5092292;28;19915;-67
2023/08/01 07:53:18;;;;;;;;;;;17.00;88.20;;;;;;5104645;28;20323;-63
2023/08/01 07:55:45;;;;;;;;;;;17.00;89.00;;;;;;5112250;28;19915;-64
2023/08/01 07:58:12;;;;;;;;;;;16.90;89.60;;;;;;5107482;28;20416;-67
2023/08/01 08:00:38;;;;;;;;;;;16.90;90.30;;;;;;5092516;28;19924;-66
2023/08/01 08:03:05;;;;;;;;;;;16.90;90.60;;;;;;5103908;28;19965;-67
2023/08/01 08:05:32;;;;;;;;;;;16.80;91.00;;;;;;5094563;28;19912;-67
2023/08/01 08:07:59;;;;;;;;;;;16.80;91.20;;;;;;5112594;28;19969;-66
2023/08/01 08:10:25;;;;;;;;;;;16.70;91.30;;;;;;5112853;28;19912;-65
2023/08/01 08:12:52;;;;;;;;;;;16.70;91.80;;;;;;5112648;28;19916;-68
2023/08/01 08:15:19;;;;;;;;;;;16.60;92.10;;;;;;5112704;28;20387;-64
2023/08/01 08:17:46;;;;;;;;;;;16.50;92.30;;;;;;5112309;28;19912;-66
2023/08/01 08:20:13;;;;;;;;;;;16.40;92.50;;;;;;5111735;28;20283;-66
2023/08/01 08:22:39;;;;;;;;;;;16.40;92.90;;;;;;5112579;28;19911;-66
2023/08/01 08:25:06;;;;;;;;;;;16.30;93.20;;;;;;5112851;28;19911;-66
2023/08/01 08:27:33;;;;;;;;;;;16.20;93.50;;;;;;5121032;28;19911;-66
2023/08/01 08:29:59;;;;;;;;;;;16.10;94.00;;;;;;5100679;28;19951;-69
2023/08/01 08:32:26;;;;;;;;;;;16.10;94.00;;;;;;5112464;28;19987;-66
2023/08/01 08:34:52;;;;;;;;;;;16.10;94.30;;;;;;5112499;28;19931;-66
2023/08/01 08:37:19;;;;;;;;;;;16.00;94.90;;;;;;5112967;28;19908;-65
2023/08/01 08:39:47;;;;;;;;;;;16.00;94.90;;;;;;5093629;28;19919;-66
2023/08/01 08:42:13;;;;;;;;;;;15.90;95.40;;;;;;5098599;28;19919;-66
2023/08/01 08:44:43;;;;;;;;;;;15.90;95.60;;;;;;5096669;28;19920;-65
2023/08/01 08:47:11;;;;;;;;;;;15.90;95.70;;;;;;5100926;28;20364;-67
2023/08/01 08:49:39;;;;;;;;;;;15.80;96.00;;;;;;5112987;28;19911;-66
2023/08/01 08:52:06;;;;;;;;;;;15.80;96.30;;;;;;5114166;27;20382;-66
2023/08/01 08:54:33;;;;;;;;;;;15.80;96.50;;;;;;5116641;28;19982;-66
2023/08/01 08:56:59;;;;;;;;;;;15.70;96.90;;;;;;5124388;27;20006;-66
2023/08/01 08:59:27;;;;;;;;;;;15.70;97.10;;;;;;5115002;27;19918;-66
2023/08/01 09:01:54;;;;;;;;;;;15.70;97.30;;;;;;5114255;27;19920;-66
2023/08/01 09:04:20;;;;;;;;;;;15.70;97.60;;;;;;5114779;28;19907;-68
2023/08/01 09:06:49;;;;;;;;;;;15.60;97.70;;;;;;5114573;28;19919;-66
2023/08/01 09:09:16;;;;;;;;;;;15.70;98.00;;;;;;5114470;28;19941;-66
2023/08/01 09:11:52;;;;;;;;;;;15.60;98.20;;;;;;5115076;28;19911;-67
2023/08/01 09:14:19;;;;;;;;;;;15.70;98.40;;;;;;5115458;28;20395;-65
2023/08/01 09:16:49;;;;;;;;;;;15.60;98.50;;;;;;5115797;27;20284;-67
2023/08/01 09:19:17;;;;;;;;;;;15.60;98.60;;;;;;5077858;28;20335;-67
2023/08/01 09:21:44;;;;;;;;;;;15.70;98.80;;;;;;5101241;28;19920;-66
2023/08/01 09:24:11;;;;;;;;;;;15.70;98.90;;;;;;5095551;28;19908;-65
2023/08/01 09:26:38;;;;;;;;;;;15.70;98.90;;;;;;5101897;27;19912;-66
2023/08/01 09:29:05;;;;;;;;;;;15.80;99.00;;;;;;5081881;28;20106;-65
2023/08/01 09:31:36;;;;;;;;;;;15.70;98.90;;;;;;5098435;28;19956;-66
2023/08/01 09:34:06;;;;;;;;;;;15.70;99.00;;;;;;5115748;28;19908;-66
2023/08/01 09:36:33;;;;;;;;;;;15.70;99.10;;;;;;5112184;28;20402;-64
2023/08/01 09:39:03;;;;;;;;;;;15.70;99.00;;;;;;5095033;28;20327;-65
2023/08/01 09:41:30;;;;;;;;;;;15.80;98.90;;;;;;5095455;27;20307;-65
2023/08/01 09:43:57;;;;;;;;;;;15.80;98.80;;;;;;5094830;28;19921;-65
2023/08/01 09:46:24;;;;;;;;;;;15.80;98.90;;;;;;5099714;28;20250;-65
2023/08/01 09:48:51;;;;;;;;;;;15.80;99.00;;;;;;5097058;28;20396;-65
2023/08/01 09:51:18;;;;;;;;;;;15.80;99.10;;;;;;5115381;28;20007;-65
2023/08/01 09:53:55;;;;;;;;;;;15.80;99.20;;;;;;5114724;28;19908;-66
2023/08/01 09:56:26;;;;;;;;;;;15.80;99.30;;;;;;5109497;28;20257;-66
2023/08/01 09:58:54;;;;;;;;;;;15.70;99.40;;;;;;5114581;28;20438;-66
2023/08/01 10:01:21;;;;;;;;;;;15.60;99.60;;;;;;5114104;27;19916;-65
2023/08/01 10:03:51;;;;;;;;;;;15.60;99.90;;;;;;5115061;28;19953;-66
2023/08/01 10:06:29;;;;;;;;;;;15.60;99.90;;;;;;5114801;28;20159;-66
2023/08/01 10:08:55;;;;;;;;;;;15.50;99.90;;;;;;5114508;28;19911;-67
2023/08/01 10:11:23;;;;;;;;;;;15.50;99.90;;;;;;5096099;28;20007;-66
2023/08/01 10:13:49;;;;;;;;;;;15.50;99.90;;;;;;5094261;28;19908;-66
2023/08/01 10:16:16;;;;;;;;;;;15.40;99.90;;;;;;5097487;28;20257;-65
2023/08/01 10:18:43;;;;;;;;;;;15.30;99.90;;;;;;5112960;28;20362;-67
2023/08/01 10:21:12;;;;;;;;;;;15.30;99.90;;;;;;5096418;28;19942;-66
2023/08/01 10:23:39;;;;;;;;;;;15.30;99.90;;;;;;5133293;27;19923;-65
2023/08/01 10:26:07;;;;;;;;;;;15.20;99.90;;;;;;5096857;27;20011;-67
2023/08/01 10:28:35;;;;;;;;;;;15.30;99.90;;;;;;5114375;28;20178;-66
2023/08/01 10:31:11;;;;;;;;;;;15.20;99.90;;;;;;5114662;28;19908;-65
2023/08/01 10:33:42;;;;;;;;;;;15.30;99.90;;;;;;5114742;28;19912;-67
2023/08/01 10:36:15;;;;;;;;;;;15.30;99.90;;;;;;5113603;28;19916;-65
2023/08/01 10:38:46;;;;;;;;;;;15.30;99.90;;;;;;5099715;28;19912;-64
2023/08/01 10:41:28;;;;;;;;;;;15.30;99.90;;;;;;5093848;28;19969;-65
2023/08/01 10:44:06;;;;;;;;;;;15.30;99.90;;;;;;5113552;28;19916;-67
2023/08/01 10:47:06;;;;;;;;;;;15.30;99.90;;;;;;5103836;28;19912;-65
2023/08/01 10:49:45;;;;;;;;;;;15.20;99.90;;;;;;5091046;28;20022;-65
2023/08/01 10:52:27;;;;;;;;;;;15.20;99.90;;;;;;5114248;28;19923;-65
2023/08/01 10:55:00;;;;;;;;;;;15.20;99.90;;;;;;5104868;28;19912;-66
2023/08/01 10:57:28;;;;;;;;;;;15.10;99.90;;;;;;5092942;28;19909;-66
2023/08/01 10:59:58;;;;;;;;;;;15.00;99.90;;;;;;5093507;28;20286;-66
2023/08/01 11:02:29;;;;;;;;;;;15.00;99.90;;;;;;5093691;28;19912;-64
2023/08/01 11:05:01;;;;;;;;;;;14.90;99.90;;;;;;5111014;28;19911;-64
2023/08/01 11:07:28;;;;;;;;;;;14.80;99.90;;;;;;5112304;28;19967;-65
2023/08/01 11:10:05;;;;;;;;;;;14.80;99.90;;;;;;5094860;28;20288;-66
2023/08/01 11:12:34;;;;;;;;;;;14.80;99.90;;;;;;5112647;28;20522;-65
2023/08/01 11:15:01;;;;;;;;;;;14.70;99.90;;;;;;5110728;28;19922;-66
2023/08/01 11:17:28;;;;;;;;;;;14.70;99.90;;;;;;5112877;28;19908;-66
2023/08/01 11:20:04;;;;;;;;;;;14.60;99.90;;;;;;5113004;28;19915;-66
2023/08/01 11:22:31;;;;;;;;;;;14.60;99.90;;;;;;5093074;28;19912;-67
2023/08/01 11:24:58;;;;;;;;;;;14.50;99.90;;;;;;5112256;28;19911;-66
2023/08/01 11:27:28;;;;;;;;;;;14.40;99.90;;;;;;5112783;28;19911;-66
2023/08/01 11:29:55;;;;;;;;;;;14.40;99.90;;;;;;5110269;28;20280;-65
2023/08/01 11:32:22;;;;;;;;;;;14.40;99.90;;;;;;5109587;28;19947;-65
2023/08/01 11:34:49;;;;;;;;;;;14.30;99.90;;;;;;5109040;28;19916;-66
2023/08/01 11:37:18;;;;;;;;;;;14.30;99.90;;;;;;5112880;28;21280;-67
2023/08/01 11:39:45;;;;;;;;;;;14.20;99.90;;;;;;5112836;28;19908;-65
2023/08/01 11:42:16;;;;;;;;;;;14.20;99.90;;;;;;5112810;28;19916;-65
2023/08/01 11:44:43;;;;;;;;;;;14.20;99.90;;;;;;5110311;28;19926;-67
2023/08/01 11:47:14;;;;;;;;;;;14.10;99.90;;;;;;5112865;28;20271;-66
2023/08/01 11:49:50;;;;;;;;;;;14.10;99.90;;;;;;5112768;28;19907;-66
2023/08/01 11:52:23;;;;;;;;;;;14.10;99.90;;;;;;5112793;28;19990;-66
2023/08/01 11:54:50;;;;;;;;;;;14.00;99.90;;;;;;5112806;28;19915;-65
2023/08/01 11:57:17;;;;;;;;;;;14.00;99.90;;;;;;5112824;28;19908;-65
2023/08/01 11:59:51;;;;;;;;;;;14.00;99.90;;;;;;5112800;28;19911;-67
2023/08/01 12:02:27;;;;;;;;;;;13.90;99.90;;;;;;5101717;28;19920;-66
2023/08/01 12:04:54;;;;;;;;;;;13.90;99.90;;;;;;5092701;28;19912;-66
2023/08/01 12:07:21;;;;;;;;;;;13.90;99.90;;;;;;5092715;28;19908;-66
2023/08/01 12:09:58;;;;;;;;;;;13.80;99.90;;;;;;5101186;28;19916;-67
2023/08/01 12:12:28;;;;;;;;;;;13.80;99.90;;;;;;5112147;28;19919;-66
2023/08/01 12:14:55;;;;;;;;;;;13.70;99.90;;;;;;5099491;28;19943;-66
2023/08/01 12:17:22;;;;;;;;;;;13.70;99.90;;;;;;5092338;28;19910;-66
2023/08/01 12:19:49;;;;;;;;;;;13.70;99.90;;;;;;5091942;28;19908;-66
2023/08/01 12:22:16;;;;;;;;;;;13.60;99.90;;;;;;5107315;28;20364;-65
2023/08/01 12:24:42;;;;;;;;;;;13.60;99.90;;;;;;5116285;28;20360;-67
2023/08/01 12:27:09;;;;;;;;;;;13.50;99.90;;;;;;5116991;28;20233;-66
2023/08/01 12:29:36;;;;;;;;;;;13.50;99.90;;;;;;5106597;28;19995;-66
2023/08/01 12:32:03;;;;;;;;;;;13.50;99.90;;;;;;5105658;28;20283;-66
2023/08/01 12:34:30;;;;;;;;;;;13.40;99.90;;;;;;5117213;28;19908;-65
2023/08/01 12:36:57;;;;;;;;;;;13.40;99.90;;;;;;5116724;28;20015;-66
2023/08/01 12:39:25;;;;;;;;;;;13.30;99.90;;;;;;5098005;28;20309;-66
2023/08/01 12:41:53;;;;;;;;;;;13.30;99.90;;;;;;5116272;28;19915;-67
2023/08/01 12:44:20;;;;;;;;;;;13.30;99.90;;;;;;5116441;28;19920;-66
2023/08/01 12:46:47;;;;;;;;;;;13.30;99.90;;;;;;5116824;28;19961;-66
2023/08/01 12:49:14;;;;;;;;;;;13.20;99.90;;;;;;5116152;28;19939;-65
2023/08/01 12:51:40;;;;;;;;;;;13.20;99.90;;;;;;5115938;28;20002;-67
2023/08/01 12:54:07;;;;;;;;;;;13.10;99.90;;;;;;5116488;28;19951;-67
2023/08/01 12:56:34;;;;;;;;;;;13.00;99.90;;;;;;5116180;28;20443;-66
2023/08/01 12:59:00;;;;;;;;;;;13.10;99.90;;;;;;5116240;28;19907;-66
2023/08/01 13:01:27;;;;;;;;;;;13.10;99.90;;;;;;5116354;28;20027;-67
2023/08/01 13:03:53;;;;;;;;;;;13.10;99.90;;;;;;5115908;28;19998;-68
2023/08/01 13:06:20;;;;;;;;;;;13.00;99.90;;;;;;5116559;28;19908;-68
2023/08/01 13:08:47;;;;;;;;;;;13.00;99.90;;;;;;5115836;28;19912;-68
2023/08/01 13:11:14;;;;;;;;;;;13.00;99.90;;;;;;5106014;28;19912;-66
2023/08/01 13:13:41;;;;;;;;;;;13.00;99.90;;;;;;5095217;28;20010;-66
2023/08/01 13:16:08;;;;;;;;;;;13.00;99.90;;;;;;5095751;28;19931;-67
2023/08/01 13:18:34;;;;;;;;;;;12.90;99.90;;;;;;5095545;28;19908;-65
2023/08/01 13:21:01;;;;;;;;;;;12.90;99.90;;;;;;5095622;28;19923;-65
2023/08/01 13:23:28;;;;;;;;;;;13.00;99.90;;;;;;5095595;28;19915;-67
2023/08/01 13:25:55;;;;;;;;;;;12.90;99.90;;;;;;5095427;28;19916;-66
2023/08/01 13:28:22;;;;;;;;;;;12.90;99.90;;;;;;5095419;28;19961;-67
2023/08/01 13:30:48;;;;;;;;;;;12.90;99.90;;;;;;5094913;28;19916;-67
2023/08/01 13:33:15;;;;;;;;;;;13.00;99.90;;;;;;5094904;28;20340;-65
2023/08/01 13:35:42;;;;;;;;;;;13.00;99.90;;;;;;5093799;28;19959;-65
2023/08/01 13:38:08;;;;;;;;;;;13.00;99.90;;;;;;5095417;28;19999;-65
2023/08/01 13:40:35;;;;;;;;;;;13.00;99.90;;;;;;5107591;28;20280;-66
2023/08/01 13:43:02;;;;;;;;;;;13.00;99.90;;;;;;5108680;28;19920;-65
2023/08/01 13:45:30;;;;;;;;;;;13.00;99.90;;;;;;5095354;28;19923;-66
2023/08/01 13:47:57;;;;;;;;;;;13.00;99.90;;;;;;5095251;28;19973;-66
2023/08/01 13:50:26;;;;;;;;;;;13.00;99.90;;;;;;5095530;28;20289;-66
2023/08/01 13:52:53;;;;;;;;;;;13.00;99.90;;;;;;5101858;28;20256;-66
2023/08/01 13:55:20;;;;;;;;;;;12.90;99.90;;;;;;5115075;28;19907;-66
2023/08/01 13:57:47;;;;;;;;;;;13.00;99.90;;;;;;5115066;28;19990;-66
2023/08/01 14:00:13;;;;;;;;;;;13.00;99.90;;;;;;5115210;28;19908;-65
2023/08/01 14:02:40;;;;;;;;;;;13.10;99.90;;;;;;5104527;28;20010;-67
2023/08/01 14:05:07;;;;;;;;;;;13.00;99.90;;;;;;5094730;28;19909;-67
2023/08/01 14:07:39;;;;;;;;;;;13.10;99.90;;;;;;5094803;28;19908;-65
2023/08/01 14:10:06;;;;;;;;;;;13.10;99.90;;;;;;5094612;28;19908;-66
2023/08/01 14:12:32;;;;;;;;;;;13.10;99.90;;;;;;5094684;28;20411;-67
2023/08/01 14:14:59;;;;;;;;;;;13.20;99.90;;;;;;5094517;28;20044;-65
2023/08/01 14:17:26;;;;;;;;;;;13.20;99.90;;;;;;5096705;28;19947;-65